Accueil
METAR-TAF:

METAR-TAF

Aéroports :

Base aérienne 113 Saint-Dizier-Robinson

Saint-Dizier, France

latitude: 48-38N, longitude: 004-54E, altitude: 139 m

Observation

Le bulletin a été fait il y a 41 minutes, à 17:30 UTC
Vent 6 kt de nord/nord-ouest
Température 24°C
Humidité 54%
Pression 1019 hPa
Visibilité 10 km ou plus
pas de nuages en-dessous de 1500 mètres et pas de cumulonimbus.

METAR: LFSI 151730Z AUTO 34006KT CAVOK 24/14 Q1019

Heure: 20:11 (18:11 UTC)

Prévision

Le bulletin a été fait il y a 4 heures et 11 minutes, à 14:00 UTC
Prévision valable du 15 à 15 UTC au 16 à 15 UTC
Vent 7 kt de nord/nord-ouest
Visibilité 10 km ou plus
Nuages épars à une hauteur de 4500 ft
Temporairement
du 16 à 02 UTC au 16 à 06 UTC
Visibilité: 4000 m
brume

TAF: LFSI 151400Z 1515/1615 33007KT 9999 SCT045 TEMPO 1602/1606 4000 BR

Observations et prévisions météorologiques de plus de 4000 aéroports (messages METAR et TAF).

Les stations disponibles sont représentées par des disques jaunes et rouges sur la carte.

Passer la souris dessus pour voir le nom de la station.

Cliquer dessus pour voir les observations et prévisions météorologiques.

Pour changer de carte: cliquez sur les boutons verts avec une croix noire pour zoomer, sur le bouton vert avec un tiret pour effectuer un zoom arrière, ou sur les flèches vertes pour les cartes adjacentes.


METAR-TAF: